sensor_id;sensor_type;location;lat;lon;timestamp;P1;durP1;ratioP1;P2;durP2;ratioP2
49946;SDS011;35839;48.662;13.300;2022-08-11T05:13:44;4.03;;;3.30;;
49946;SDS011;35839;48.662;13.300;2022-08-11T05:19:34;5.13;;;3.80;;
49946;SDS011;35839;48.662;13.300;2022-08-11T05:22:19;5.90;;;3.40;;
49946;SDS011;35839;48.662;13.300;2022-08-11T05:25:11;6.90;;;3.42;;
49946;SDS011;35839;48.662;13.300;2022-08-11T05:28:05;8.70;;;4.07;;
49946;SDS011;35839;48.662;13.300;2022-08-11T05:30:56;4.05;;;3.30;;
49946;SDS011;35839;48.662;13.300;2022-08-11T05:33:47;3.75;;;3.17;;
49946;SDS011;35839;48.662;13.300;2022-08-11T05:36:44;5.97;;;3.38;;
49946;SDS011;35839;48.662;13.300;2022-08-11T05:39:18;7.47;;;3.90;;
49946;SDS011;35839;48.662;13.300;2022-08-11T05:42:05;3.85;;;3.00;;
49946;SDS011;35839;48.662;13.300;2022-08-11T05:44:52;8.05;;;4.05;;
49946;SDS011;35839;48.662;13.300;2022-08-11T05:47:37;4.85;;;3.00;;
49946;SDS011;35839;48.662;13.300;2022-08-11T05:50:24;8.65;;;4.18;;
49946;SDS011;35839;48.662;13.300;2022-08-11T05:53:09;4.60;;;3.60;;
49946;SDS011;35839;48.662;13.300;2022-08-11T05:55:55;4.90;;;3.35;;
49946;SDS011;35839;48.662;13.300;2022-08-11T05:58:42;8.70;;;3.55;;
49946;SDS011;35839;48.662;13.300;2022-08-11T06:01:14;5.47;;;3.63;;
49946;SDS011;35839;48.662;13.300;2022-08-11T06:03:47;5.43;;;3.10;;
49946;SDS011;35839;48.662;13.300;2022-08-11T06:06:35;6.85;;;3.92;;
49946;SDS011;35839;48.662;13.300;2022-08-11T06:09:04;3.53;;;2.83;;
49946;SDS011;35839;48.662;13.300;2022-08-11T06:11:36;6.40;;;3.25;;
49946;SDS011;35839;48.662;13.300;2022-08-11T06:14:06;7.35;;;3.42;;
49946;SDS011;35839;48.662;13.300;2022-08-11T06:16:35;4.93;;;2.90;;
49946;SDS011;35839;48.662;13.300;2022-08-11T06:19:02;5.18;;;3.00;;
49946;SDS011;35839;48.662;13.300;2022-08-11T06:21:32;4.43;;;3.00;;
49946;SDS011;35839;48.662;13.300;2022-08-11T06:24:00;3.20;;;2.70;;
49946;SDS011;35839;48.662;13.300;2022-08-11T06:26:35;4.15;;;3.10;;
49946;SDS011;35839;48.662;13.300;2022-08-11T06:29:02;5.28;;;2.78;;
49946;SDS011;35839;48.662;13.300;2022-08-11T06:31:29;3.45;;;2.65;;
49946;SDS011;35839;48.662;13.300;2022-08-11T06:34:00;3.33;;;2.30;;
49946;SDS011;35839;48.662;13.300;2022-08-11T06:37:00;6.07;;;2.93;;
49946;SDS011;35839;48.662;13.300;2022-08-11T06:39:41;4.25;;;3.08;;
49946;SDS011;35839;48.662;13.300;2022-08-11T06:42:10;4.20;;;2.97;;
49946;SDS011;35839;48.662;13.300;2022-08-11T06:45:00;3.83;;;2.80;;
49946;SDS011;35839;48.662;13.300;2022-08-11T06:47:32;3.95;;;2.33;;
49946;SDS011;35839;48.662;13.300;2022-08-11T06:49:59;5.50;;;2.85;;
49946;SDS011;35839;48.662;13.300;2022-08-11T06:52:43;8.23;;;3.17;;
49946;SDS011;35839;48.662;13.300;2022-08-11T06:55:12;5.93;;;2.75;;
49946;SDS011;35839;48.662;13.300;2022-08-11T06:58:05;7.07;;;3.03;;
49946;SDS011;35839;48.662;13.300;2022-08-11T07:00:57;4.88;;;2.38;;
49946;SDS011;35839;48.662;13.300;2022-08-11T07:03:28;5.28;;;3.33;;
49946;SDS011;35839;48.662;13.300;2022-08-11T07:06:04;3.33;;;2.30;;
49946;SDS011;35839;48.662;13.300;2022-08-11T07:14:20;8.07;;;2.78;;
49946;SDS011;35839;48.662;13.300;2022-08-11T07:17:13;4.70;;;2.45;;
49946;SDS011;35839;48.662;13.300;2022-08-11T07:19:42;5.03;;;2.70;;
49946;SDS011;35839;48.662;13.300;2022-08-11T07:22:33;3.55;;;2.70;;
49946;SDS011;35839;48.662;13.300;2022-08-11T07:25:18;3.40;;;2.75;;
49946;SDS011;35839;48.662;13.300;2022-08-11T07:28:09;5.85;;;2.47;;
49946;SDS011;35839;48.662;13.300;2022-08-11T07:30:57;7.65;;;2.80;;
49946;SDS011;35839;48.662;13.300;2022-08-11T07:33:35;3.67;;;2.35;;
49946;SDS011;35839;48.662;13.300;2022-08-11T07:36:09;4.03;;;2.22;;
49946;SDS011;35839;48.662;13.300;2022-08-11T07:38:38;2.08;;;1.88;;
49946;SDS011;35839;48.662;13.300;2022-08-11T07:41:10;4.28;;;2.30;;
49946;SDS011;35839;48.662;13.300;2022-08-11T07:43:40;2.45;;;1.80;;
49946;SDS011;35839;48.662;13.300;2022-08-11T07:46:11;4.55;;;2.67;;
49946;SDS011;35839;48.662;13.300;2022-08-11T07:48:55;2.33;;;2.03;;
49946;SDS011;35839;48.662;13.300;2022-08-11T07:51:40;3.80;;;2.70;;
49946;SDS011;35839;48.662;13.300;2022-08-11T07:54:26;2.60;;;2.10;;
49946;SDS011;35839;48.662;13.300;2022-08-11T07:56:51;4.28;;;2.10;;
49946;SDS011;35839;48.662;13.300;2022-08-11T07:59:18;2.97;;;2.25;;
49946;SDS011;35839;48.662;13.300;2022-08-11T08:02:03;4.07;;;2.42;;
49946;SDS011;35839;48.662;13.300;2022-08-11T08:04:48;5.63;;;2.53;;
49946;SDS011;35839;48.662;13.300;2022-08-11T08:07:32;3.45;;;2.00;;
49946;SDS011;35839;48.662;13.300;2022-08-11T08:10:19;2.60;;;2.03;;
49946;SDS011;35839;48.662;13.300;2022-08-11T08:13:05;4.03;;;2.00;;
49946;SDS011;35839;48.662;13.300;2022-08-11T08:15:50;3.65;;;2.38;;
49946;SDS011;35839;48.662;13.300;2022-08-11T08:18:36;2.35;;;1.90;;
49946;SDS011;35839;48.662;13.300;2022-08-11T08:21:03;2.80;;;2.30;;
49946;SDS011;35839;48.662;13.300;2022-08-11T08:23:39;2.53;;;2.05;;
49946;SDS011;35839;48.662;13.300;2022-08-11T08:26:08;7.28;;;2.28;;
49946;SDS011;35839;48.662;13.300;2022-08-11T08:28:55;3.37;;;1.63;;
49946;SDS011;35839;48.662;13.300;2022-08-11T08:31:44;9.07;;;2.45;;
49946;SDS011;35839;48.662;13.300;2022-08-11T08:34:12;3.63;;;2.15;;
49946;SDS011;35839;48.662;13.300;2022-08-11T08:36:41;2.38;;;1.83;;
49946;SDS011;35839;48.662;13.300;2022-08-11T08:39:08;4.22;;;1.88;;
49946;SDS011;35839;48.662;13.300;2022-08-11T08:41:33;4.40;;;1.80;;
49946;SDS011;35839;48.662;13.300;2022-08-11T08:44:03;3.90;;;2.25;;
49946;SDS011;35839;48.662;13.300;2022-08-11T08:46:36;3.65;;;2.05;;
49946;SDS011;35839;48.662;13.300;2022-08-11T08:49:07;3.00;;;1.70;;
49946;SDS011;35839;48.662;13.300;2022-08-11T08:51:38;2.55;;;1.92;;
49946;SDS011;35839;48.662;13.300;2022-08-11T08:54:06;6.93;;;1.77;;
49946;SDS011;35839;48.662;13.300;2022-08-11T08:56:35;2.85;;;1.90;;
49946;SDS011;35839;48.662;13.300;2022-08-11T08:59:04;2.85;;;1.70;;
49946;SDS011;35839;48.662;13.300;2022-08-11T09:01:34;2.83;;;2.22;;
49946;SDS011;35839;48.662;13.300;2022-08-11T09:04:07;3.10;;;2.40;;
49946;SDS011;35839;48.662;13.300;2022-08-11T09:06:34;3.25;;;1.90;;
49946;SDS011;35839;48.662;13.300;2022-08-11T09:09:03;9.20;;;1.90;;
49946;SDS011;35839;48.662;13.300;2022-08-11T09:11:32;2.38;;;2.03;;
49946;SDS011;35839;48.662;13.300;2022-08-11T09:14:14;3.45;;;1.77;;
49946;SDS011;35839;48.662;13.300;2022-08-11T09:16:41;1.58;;;1.48;;
49946;SDS011;35839;48.662;13.300;2022-08-11T09:19:08;2.00;;;1.45;;
49946;SDS011;35839;48.662;13.300;2022-08-11T09:21:34;4.07;;;1.88;;
49946;SDS011;35839;48.662;13.300;2022-08-11T09:24:04;3.95;;;2.05;;
49946;SDS011;35839;48.662;13.300;2022-08-11T09:26:49;1.70;;;1.60;;
49946;SDS011;35839;48.662;13.300;2022-08-11T09:29:28;4.10;;;1.73;;
49946;SDS011;35839;48.662;13.300;2022-08-11T09:31:55;2.00;;;1.52;;
49946;SDS011;35839;48.662;13.300;2022-08-11T09:34:22;2.40;;;2.17;;
49946;SDS011;35839;48.662;13.300;2022-08-11T09:36:50;2.25;;;1.67;;
49946;SDS011;35839;48.662;13.300;2022-08-11T09:39:37;3.90;;;1.63;;
49946;SDS011;35839;48.662;13.300;2022-08-11T09:42:23;4.45;;;2.03;;
49946;SDS011;35839;48.662;13.300;2022-08-11T09:45:12;4.22;;;2.05;;
49946;SDS011;35839;48.662;13.300;2022-08-11T09:47:38;5.57;;;2.10;;
49946;SDS011;35839;48.662;13.300;2022-08-11T09:50:04;5.05;;;1.80;;
49946;SDS011;35839;48.662;13.300;2022-08-11T09:52:36;5.78;;;1.90;;
49946;SDS011;35839;48.662;13.300;2022-08-11T09:55:04;5.63;;;2.03;;
49946;SDS011;35839;48.662;13.300;2022-08-11T09:57:35;2.78;;;1.80;;
49946;SDS011;35839;48.662;13.300;2022-08-11T10:00:27;2.10;;;1.63;;
49946;SDS011;35839;48.662;13.300;2022-08-11T10:02:53;4.97;;;1.63;;
49946;SDS011;35839;48.662;13.300;2022-08-11T10:05:21;4.68;;;1.92;;
49946;SDS011;35839;48.662;13.300;2022-08-11T10:08:06;7.60;;;2.22;;
49946;SDS011;35839;48.662;13.300;2022-08-11T10:10:36;2.70;;;1.35;;
49946;SDS011;35839;48.662;13.300;2022-08-11T10:13:07;4.82;;;2.00;;
49946;SDS011;35839;48.662;13.300;2022-08-11T10:15:34;2.20;;;1.55;;
49946;SDS011;35839;48.662;13.300;2022-08-11T10:18:16;2.50;;;1.73;;
49946;SDS011;35839;48.662;13.300;2022-08-11T10:21:12;2.35;;;1.17;;
49946;SDS011;35839;48.662;13.300;2022-08-11T10:23:40;3.20;;;1.60;;
49946;SDS011;35839;48.662;13.300;2022-08-11T10:26:27;4.13;;;1.38;;
49946;SDS011;35839;48.662;13.300;2022-08-11T10:29:12;1.85;;;1.60;;
49946;SDS011;35839;48.662;13.300;2022-08-11T10:31:57;1.98;;;1.52;;
49946;SDS011;35839;48.662;13.300;2022-08-11T10:34:43;2.47;;;1.50;;
49946;SDS011;35839;48.662;13.300;2022-08-11T10:37:10;1.95;;;1.70;;
49946;SDS011;35839;48.662;13.300;2022-08-11T10:39:37;1.65;;;1.48;;
49946;SDS011;35839;48.662;13.300;2022-08-11T10:42:03;4.40;;;1.85;;
49946;SDS011;35839;48.662;13.300;2022-08-11T10:44:53;2.40;;;1.80;;
49946;SDS011;35839;48.662;13.300;2022-08-11T10:47:19;4.80;;;1.30;;
49946;SDS011;35839;48.662;13.300;2022-08-11T10:50:09;2.63;;;1.40;;
49946;SDS011;35839;48.662;13.300;2022-08-11T10:52:55;2.63;;;1.55;;
49946;SDS011;35839;48.662;13.300;2022-08-11T10:55:42;2.38;;;1.63;;
49946;SDS011;35839;48.662;13.300;2022-08-11T10:58:27;1.58;;;1.20;;
49946;SDS011;35839;48.662;13.300;2022-08-11T11:01:13;1.63;;;1.50;;
49946;SDS011;35839;48.662;13.300;2022-08-11T11:03:40;1.77;;;1.67;;
49946;SDS011;35839;48.662;13.300;2022-08-11T11:06:08;1.63;;;1.30;;
49946;SDS011;35839;48.662;13.300;2022-08-11T11:08:44;1.55;;;1.45;;
49946;SDS011;35839;48.662;13.300;2022-08-11T11:11:17;2.97;;;1.40;;
49946;SDS011;35839;48.662;13.300;2022-08-11T11:13:45;2.72;;;2.08;;
49946;SDS011;35839;48.662;13.300;2022-08-11T11:19:18;1.73;;;1.60;;
49946;SDS011;35839;48.662;13.300;2022-08-11T11:21:47;2.15;;;1.70;;
49946;SDS011;35839;48.662;13.300;2022-08-11T11:24:41;1.88;;;1.50;;
49946;SDS011;35839;48.662;13.300;2022-08-11T11:35:38;1.58;;;1.30;;
49946;SDS011;35839;48.662;13.300;2022-08-11T11:38:11;1.67;;;1.55;;
49946;SDS011;35839;48.662;13.300;2022-08-11T11:40:37;2.92;;;1.95;;
49946;SDS011;35839;48.662;13.300;2022-08-11T11:43:04;4.13;;;2.05;;
49946;SDS011;35839;48.662;13.300;2022-08-11T11:45:29;2.63;;;1.70;;
49946;SDS011;35839;48.662;13.300;2022-08-11T11:47:56;2.33;;;1.70;;
49946;SDS011;35839;48.662;13.300;2022-08-11T11:50:24;3.90;;;1.50;;
49946;SDS011;35839;48.662;13.300;2022-08-11T11:52:52;5.00;;;1.58;;
49946;SDS011;35839;48.662;13.300;2022-08-11T11:55:20;3.13;;;1.50;;
49946;SDS011;35839;48.662;13.300;2022-08-11T11:57:47;3.85;;;1.63;;
49946;SDS011;35839;48.662;13.300;2022-08-11T12:00:31;2.67;;;1.15;;
49946;SDS011;35839;48.662;13.300;2022-08-11T12:03:16;2.67;;;1.55;;
49946;SDS011;35839;48.662;13.300;2022-08-11T12:05:43;2.13;;;1.70;;
49946;SDS011;35839;48.662;13.300;2022-08-11T12:08:11;3.83;;;1.40;;
49946;SDS011;35839;48.662;13.300;2022-08-11T12:10:42;2.38;;;1.88;;
49946;SDS011;35839;48.662;13.300;2022-08-11T12:13:14;5.15;;;1.65;;
49946;SDS011;35839;48.662;13.300;2022-08-11T12:16:00;2.65;;;1.52;;
49946;SDS011;35839;48.662;13.300;2022-08-11T12:18:31;1.75;;;1.30;;
49946;SDS011;35839;48.662;13.300;2022-08-11T12:20:59;1.77;;;1.48;;
49946;SDS011;35839;48.662;13.300;2022-08-11T12:23:26;3.80;;;1.35;;
49946;SDS011;35839;48.662;13.300;2022-08-11T12:26:12;1.58;;;1.30;;
49946;SDS011;35839;48.662;13.300;2022-08-11T12:31:25;3.80;;;1.23;;
49946;SDS011;35839;48.662;13.300;2022-08-11T12:33:58;1.90;;;1.58;;
49946;SDS011;35839;48.662;13.300;2022-08-11T12:36:24;1.70;;;1.50;;
49946;SDS011;35839;48.662;13.300;2022-08-11T12:38:50;2.67;;;2.08;;
49946;SDS011;35839;48.662;13.300;2022-08-11T12:41:19;2.03;;;1.45;;
49946;SDS011;35839;48.662;13.300;2022-08-11T12:44:04;1.27;;;1.17;;
49946;SDS011;35839;48.662;13.300;2022-08-11T12:46:51;2.05;;;1.30;;
49946;SDS011;35839;48.662;13.300;2022-08-11T12:49:18;1.85;;;1.50;;
49946;SDS011;35839;48.662;13.300;2022-08-11T12:52:05;3.20;;;1.63;;
49946;SDS011;35839;48.662;13.300;2022-08-11T12:57:25;1.73;;;1.13;;
49946;SDS011;35839;48.662;13.300;2022-08-11T13:00:14;1.40;;;1.30;;
49946;SDS011;35839;48.662;13.300;2022-08-11T13:02:59;3.25;;;1.45;;
49946;SDS011;35839;48.662;13.300;2022-08-11T13:05:44;2.83;;;1.70;;
49946;SDS011;35839;48.662;13.300;2022-08-11T13:08:11;2.45;;;1.77;;
49946;SDS011;35839;48.662;13.300;2022-08-11T13:10:40;2.17;;;1.77;;
49946;SDS011;35839;48.662;13.300;2022-08-11T13:13:25;4.93;;;1.67;;
49946;SDS011;35839;48.662;13.300;2022-08-11T13:15:51;1.73;;;1.60;;
49946;SDS011;35839;48.662;13.300;2022-08-11T13:18:17;4.30;;;1.70;;
49946;SDS011;35839;48.662;13.300;2022-08-11T13:20:47;2.25;;;1.45;;
49946;SDS011;35839;48.662;13.300;2022-08-11T13:23:15;6.47;;;1.67;;
49946;SDS011;35839;48.662;13.300;2022-08-11T13:25:41;2.83;;;1.20;;
49946;SDS011;35839;48.662;13.300;2022-08-11T13:28:08;3.78;;;1.63;;
49946;SDS011;35839;48.662;13.300;2022-08-11T13:30:35;2.53;;;1.92;;
49946;SDS011;35839;48.662;13.300;2022-08-11T13:33:19;6.75;;;1.40;;
49946;SDS011;35839;48.662;13.300;2022-08-11T13:35:46;1.65;;;1.55;;
49946;SDS011;35839;48.662;13.300;2022-08-11T13:38:13;1.88;;;1.70;;
49946;SDS011;35839;48.662;13.300;2022-08-11T13:40:40;1.98;;;1.77;;
49946;SDS011;35839;48.662;13.300;2022-08-11T13:43:07;2.60;;;1.45;;
49946;SDS011;35839;48.662;13.300;2022-08-11T13:45:33;3.92;;;1.60;;
49946;SDS011;35839;48.662;13.300;2022-08-11T13:48:02;1.98;;;1.55;;
49946;SDS011;35839;48.662;13.300;2022-08-11T13:50:32;2.40;;;1.50;;
49946;SDS011;35839;48.662;13.300;2022-08-11T13:53:19;2.63;;;1.70;;
49946;SDS011;35839;48.662;13.300;2022-08-11T13:55:46;2.20;;;1.98;;
49946;SDS011;35839;48.662;13.300;2022-08-11T13:58:12;5.70;;;1.50;;
49946;SDS011;35839;48.662;13.300;2022-08-11T14:00:39;3.13;;;1.40;;
49946;SDS011;35839;48.662;13.300;2022-08-11T14:03:09;2.72;;;1.90;;
49946;SDS011;35839;48.662;13.300;2022-08-11T14:05:41;3.60;;;1.23;;
49946;SDS011;35839;48.662;13.300;2022-08-11T14:08:11;1.40;;;1.30;;
49946;SDS011;35839;48.662;13.300;2022-08-11T14:10:39;1.83;;;1.65;;
49946;SDS011;35839;48.662;13.300;2022-08-11T14:13:06;1.67;;;1.58;;
49946;SDS011;35839;48.662;13.300;2022-08-11T14:16:03;1.90;;;1.70;;
49946;SDS011;35839;48.662;13.300;2022-08-11T14:18:32;2.80;;;1.80;;
49946;SDS011;35839;48.662;13.300;2022-08-11T14:20:59;1.58;;;1.48;;
49946;SDS011;35839;48.662;13.300;2022-08-11T14:23:46;1.77;;;1.50;;
49946;SDS011;35839;48.662;13.300;2022-08-11T14:26:15;1.45;;;1.35;;
49946;SDS011;35839;48.662;13.300;2022-08-11T14:28:47;3.72;;;1.70;;
49946;SDS011;35839;48.662;13.300;2022-08-11T14:31:13;1.60;;;1.48;;
49946;SDS011;35839;48.662;13.300;2022-08-11T14:33:40;4.60;;;1.70;;
49946;SDS011;35839;48.662;13.300;2022-08-11T14:36:06;2.78;;;1.38;;
49946;SDS011;35839;48.662;13.300;2022-08-11T14:38:34;1.92;;;1.30;;
49946;SDS011;35839;48.662;13.300;2022-08-11T14:41:00;2.42;;;1.73;;
49946;SDS011;35839;48.662;13.300;2022-08-11T14:43:45;4.25;;;1.55;;
49946;SDS011;35839;48.662;13.300;2022-08-11T14:46:35;2.45;;;1.30;;
49946;SDS011;35839;48.662;13.300;2022-08-11T14:49:20;4.32;;;1.58;;
49946;SDS011;35839;48.662;13.300;2022-08-11T14:51:47;2.15;;;1.70;;
49946;SDS011;35839;48.662;13.300;2022-08-11T14:54:13;3.08;;;1.75;;
49946;SDS011;35839;48.662;13.300;2022-08-11T14:56:58;3.78;;;1.40;;
49946;SDS011;35839;48.662;13.300;2022-08-11T14:59:24;4.70;;;1.52;;
49946;SDS011;35839;48.662;13.300;2022-08-11T15:01:50;3.55;;;1.45;;
49946;SDS011;35839;48.662;13.300;2022-08-11T15:04:34;3.00;;;1.90;;
49946;SDS011;35839;48.662;13.300;2022-08-11T15:07:02;5.88;;;1.50;;
49946;SDS011;35839;48.662;13.300;2022-08-11T15:09:28;2.20;;;2.00;;
49946;SDS011;35839;48.662;13.300;2022-08-11T15:11:54;5.35;;;1.25;;
49946;SDS011;35839;48.662;13.300;2022-08-11T15:14:40;3.38;;;1.60;;
49946;SDS011;35839;48.662;13.300;2022-08-11T15:17:27;3.03;;;1.53;;
49946;SDS011;35839;48.662;13.300;2022-08-11T15:19:53;1.77;;;1.40;;
49946;SDS011;35839;48.662;13.300;2022-08-11T15:22:40;3.20;;;1.60;;
49946;SDS011;35839;48.662;13.300;2022-08-11T15:25:24;2.20;;;1.63;;
49946;SDS011;35839;48.662;13.300;2022-08-11T15:27:52;2.15;;;1.40;;
49946;SDS011;35839;48.662;13.300;2022-08-11T15:30:37;1.45;;;1.23;;
49946;SDS011;35839;48.662;13.300;2022-08-11T15:33:21;4.22;;;1.50;;
49946;SDS011;35839;48.662;13.300;2022-08-11T15:36:09;2.33;;;1.63;;
49946;SDS011;35839;48.662;13.300;2022-08-11T15:39:00;5.68;;;2.08;;
49946;SDS011;35839;48.662;13.300;2022-08-11T15:41:34;1.52;;;1.42;;
49946;SDS011;35839;48.662;13.300;2022-08-11T15:44:26;2.10;;;1.80;;
49946;SDS011;35839;48.662;13.300;2022-08-11T15:47:14;2.40;;;1.95;;
49946;SDS011;35839;48.662;13.300;2022-08-11T15:49:42;2.35;;;1.60;;
49946;SDS011;35839;48.662;13.300;2022-08-11T15:52:15;1.52;;;1.40;;
49946;SDS011;35839;48.662;13.300;2022-08-11T15:54:45;2.75;;;1.73;;
49946;SDS011;35839;48.662;13.300;2022-08-11T16:00:00;6.30;;;1.77;;
49946;SDS011;35839;48.662;13.300;2022-08-11T16:02:47;7.00;;;2.53;;
49946;SDS011;35839;48.662;13.300;2022-08-11T16:05:21;2.22;;;1.63;;
49946;SDS011;35839;48.662;13.300;2022-08-11T16:07:49;3.00;;;2.03;;
49946;SDS011;35839;48.662;13.300;2022-08-11T16:10:18;2.65;;;1.35;;
49946;SDS011;35839;48.662;13.300;2022-08-11T16:12:49;2.00;;;1.85;;
49946;SDS011;35839;48.662;13.300;2022-08-11T16:15:30;2.35;;;1.65;;
49946;SDS011;35839;48.662;13.300;2022-08-11T16:18:20;5.22;;;2.13;;
49946;SDS011;35839;48.662;13.300;2022-08-11T16:20:49;5.30;;;3.47;;
49946;SDS011;35839;48.662;13.300;2022-08-11T16:23:19;3.80;;;1.42;;
49946;SDS011;35839;48.662;13.300;2022-08-11T16:25:49;2.65;;;2.00;;
49946;SDS011;35839;48.662;13.300;2022-08-11T16:28:17;1.88;;;1.77;;
49946;SDS011;35839;48.662;13.300;2022-08-11T16:30:45;2.67;;;2.03;;
49946;SDS011;35839;48.662;13.300;2022-08-11T16:33:12;4.55;;;1.90;;
49946;SDS011;35839;48.662;13.300;2022-08-11T16:35:39;5.83;;;1.90;;
49946;SDS011;35839;48.662;13.300;2022-08-11T16:38:25;3.08;;;1.80;;
49946;SDS011;35839;48.662;13.300;2022-08-11T16:41:00;3.58;;;1.73;;
49946;SDS011;35839;48.662;13.300;2022-08-11T16:43:28;4.15;;;1.77;;
49946;SDS011;35839;48.662;13.300;2022-08-11T16:46:16;3.65;;;1.67;;
49946;SDS011;35839;48.662;13.300;2022-08-11T16:49:06;3.47;;;2.22;;
49946;SDS011;35839;48.662;13.300;2022-08-11T16:51:34;1.98;;;1.67;;
49946;SDS011;35839;48.662;13.300;2022-08-11T16:54:00;4.20;;;1.30;;
49946;SDS011;35839;48.662;13.300;2022-08-11T16:56:27;2.30;;;2.10;;
49946;SDS011;35839;48.662;13.300;2022-08-11T16:58:56;3.75;;;2.28;;
49946;SDS011;35839;48.662;13.300;2022-08-11T17:01:38;4.20;;;1.67;;
49946;SDS011;35839;48.662;13.300;2022-08-11T17:04:52;5.60;;;1.73;;
49946;SDS011;35839;48.662;13.300;2022-08-11T17:07:19;2.58;;;2.10;;
49946;SDS011;35839;48.662;13.300;2022-08-11T17:10:05;31.67;;;3.17;;
49946;SDS011;35839;48.662;13.300;2022-08-11T17:12:53;2.67;;;1.90;;
49946;SDS011;35839;48.662;13.300;2022-08-11T17:15:40;2.60;;;2.13;;
49946;SDS011;35839;48.662;13.300;2022-08-11T17:18:28;3.28;;;2.72;;
49946;SDS011;35839;48.662;13.300;2022-08-11T17:21:05;7.53;;;1.90;;
49946;SDS011;35839;48.662;13.300;2022-08-11T17:23:36;6.13;;;2.20;;
49946;SDS011;35839;48.662;13.300;2022-08-11T17:26:38;5.82;;;1.90;;
49946;SDS011;35839;48.662;13.300;2022-08-11T17:29:41;4.90;;;2.42;;
49946;SDS011;35839;48.662;13.300;2022-08-11T17:32:18;3.38;;;2.05;;
49946;SDS011;35839;48.662;13.300;2022-08-11T17:35:08;2.72;;;1.80;;
49946;SDS011;35839;48.662;13.300;2022-08-11T17:37:56;5.60;;;2.15;;
49946;SDS011;35839;48.662;13.300;2022-08-11T17:40:28;2.20;;;2.00;;
49946;SDS011;35839;48.662;13.300;2022-08-11T17:42:56;7.97;;;3.10;;
49946;SDS011;35839;48.662;13.300;2022-08-11T17:45:42;8.15;;;2.20;;
49946;SDS011;35839;48.662;13.300;2022-08-11T17:48:28;3.92;;;2.08;;
49946;SDS011;35839;48.662;13.300;2022-08-11T17:51:13;2.78;;;2.10;;
49946;SDS011;35839;48.662;13.300;2022-08-11T17:54:02;4.47;;;2.22;;
49946;SDS011;35839;48.662;13.300;2022-08-11T17:56:48;4.15;;;2.03;;
49946;SDS011;35839;48.662;13.300;2022-08-11T17:59:34;1.70;;;1.50;;
49946;SDS011;35839;48.662;13.300;2022-08-11T18:02:20;4.30;;;1.98;;
49946;SDS011;35839;48.662;13.300;2022-08-11T18:05:06;3.40;;;1.83;;
49946;SDS011;35839;48.662;13.300;2022-08-11T18:07:32;4.13;;;2.00;;
49946;SDS011;35839;48.662;13.300;2022-08-11T18:10:18;5.15;;;2.20;;
49946;SDS011;35839;48.662;13.300;2022-08-11T18:13:03;5.05;;;2.47;;
49946;SDS011;35839;48.662;13.300;2022-08-11T18:15:49;2.45;;;2.00;;
49946;SDS011;35839;48.662;13.300;2022-08-11T18:18:33;3.97;;;1.75;;
49946;SDS011;35839;48.662;13.300;2022-08-11T18:21:17;2.10;;;1.90;;
49946;SDS011;35839;48.662;13.300;2022-08-11T18:24:10;2.00;;;1.70;;
49946;SDS011;35839;48.662;13.300;2022-08-11T18:27:01;3.00;;;1.85;;
49946;SDS011;35839;48.662;13.300;2022-08-11T18:29:47;2.00;;;1.70;;
49946;SDS011;35839;48.662;13.300;2022-08-11T18:32:33;2.78;;;2.00;;
49946;SDS011;35839;48.662;13.300;2022-08-11T18:35:18;3.50;;;2.00;;
49946;SDS011;35839;48.662;13.300;2022-08-11T18:38:03;6.57;;;2.42;;
49946;SDS011;35839;48.662;13.300;2022-08-11T18:43:36;2.72;;;1.95;;
49946;SDS011;35839;48.662;13.300;2022-08-11T18:46:23;2.22;;;1.90;;
49946;SDS011;35839;48.662;13.300;2022-08-11T18:49:11;8.55;;;2.03;;
49946;SDS011;35839;48.662;13.300;2022-08-11T18:51:58;3.53;;;2.20;;
49946;SDS011;35839;48.662;13.300;2022-08-11T18:54:44;4.00;;;1.98;;
49946;SDS011;35839;48.662;13.300;2022-08-11T18:57:30;6.68;;;2.47;;
49946;SDS011;35839;48.662;13.300;2022-08-11T19:00:17;4.63;;;1.90;;
49946;SDS011;35839;48.662;13.300;2022-08-11T19:03:01;3.35;;;1.95;;
49946;SDS011;35839;48.662;13.300;2022-08-11T19:05:48;4.57;;;1.95;;
49946;SDS011;35839;48.662;13.300;2022-08-11T19:08:34;4.07;;;2.05;;
49946;SDS011;35839;48.662;13.300;2022-08-11T19:11:23;2.00;;;1.80;;
49946;SDS011;35839;48.662;13.300;2022-08-11T19:14:09;1.70;;;1.60;;
49946;SDS011;35839;48.662;13.300;2022-08-11T19:16:55;3.42;;;2.20;;
49946;SDS011;35839;48.662;13.300;2022-08-11T19:19:42;3.58;;;2.00;;
49946;SDS011;35839;48.662;13.300;2022-08-11T19:22:28;2.78;;;2.15;;
49946;SDS011;35839;48.662;13.300;2022-08-11T19:25:14;2.92;;;1.90;;
49946;SDS011;35839;48.662;13.300;2022-08-11T19:28:02;2.17;;;1.88;;
49946;SDS011;35839;48.662;13.300;2022-08-11T19:30:48;2.83;;;2.10;;
49946;SDS011;35839;48.662;13.300;2022-08-11T19:33:33;2.53;;;2.03;;
49946;SDS011;35839;48.662;13.300;2022-08-11T19:36:18;3.17;;;2.50;;
49946;SDS011;35839;48.662;13.300;2022-08-11T19:39:04;2.58;;;1.77;;
49946;SDS011;35839;48.662;13.300;2022-08-11T19:41:50;3.45;;;2.30;;
49946;SDS011;35839;48.662;13.300;2022-08-11T19:44:35;4.55;;;1.90;;
49946;SDS011;35839;48.662;13.300;2022-08-11T19:47:20;4.60;;;2.00;;
49946;SDS011;35839;48.662;13.300;2022-08-11T19:50:05;5.20;;;2.10;;
49946;SDS011;35839;48.662;13.300;2022-08-11T19:52:49;2.25;;;1.75;;
49946;SDS011;35839;48.662;13.300;2022-08-11T19:55:35;2.45;;;1.77;;
49946;SDS011;35839;48.662;13.300;2022-08-11T19:58:21;2.20;;;1.95;;
49946;SDS011;35839;48.662;13.300;2022-08-11T20:01:05;4.70;;;2.05;;
49946;SDS011;35839;48.662;13.300;2022-08-11T20:03:49;4.03;;;1.80;;
49946;SDS011;35839;48.662;13.300;2022-08-11T20:06:34;2.30;;;1.85;;
49946;SDS011;35839;48.662;13.300;2022-08-11T20:09:19;3.20;;;2.53;;
49946;SDS011;35839;48.662;13.300;2022-08-11T20:12:06;2.83;;;1.98;;
49946;SDS011;35839;48.662;13.300;2022-08-11T20:14:51;4.70;;;1.80;;
49946;SDS011;35839;48.662;13.300;2022-08-11T20:17:37;3.40;;;2.35;;
49946;SDS011;35839;48.662;13.300;2022-08-11T20:20:24;2.67;;;2.30;;
49946;SDS011;35839;48.662;13.300;2022-08-11T20:23:11;2.63;;;2.10;;
49946;SDS011;35839;48.662;13.300;2022-08-11T20:25:57;4.00;;;1.92;;
49946;SDS011;35839;48.662;13.300;2022-08-11T20:28:43;4.38;;;1.85;;
49946;SDS011;35839;48.662;13.300;2022-08-11T20:31:27;8.70;;;2.40;;
49946;SDS011;35839;48.662;13.300;2022-08-11T20:34:15;3.25;;;2.35;;
49946;SDS011;35839;48.662;13.300;2022-08-11T20:37:01;3.95;;;2.13;;
49946;SDS011;35839;48.662;13.300;2022-08-11T20:39:46;2.50;;;1.83;;
49946;SDS011;35839;48.662;13.300;2022-08-11T20:42:33;5.47;;;2.70;;
49946;SDS011;35839;48.662;13.300;2022-08-11T20:45:19;4.05;;;2.28;;
49946;SDS011;35839;48.662;13.300;2022-08-11T20:48:04;3.28;;;2.20;;
49946;SDS011;35839;48.662;13.300;2022-08-11T20:50:49;2.08;;;1.88;;
49946;SDS011;35839;48.662;13.300;2022-08-11T20:53:37;3.55;;;1.95;;
49946;SDS011;35839;48.662;13.300;2022-08-11T20:56:24;3.28;;;2.47;;
49946;SDS011;35839;48.662;13.300;2022-08-11T20:59:12;4.17;;;2.47;;
49946;SDS011;35839;48.662;13.300;2022-08-11T21:02:00;3.65;;;2.63;;
49946;SDS011;35839;48.662;13.300;2022-08-11T21:04:46;2.83;;;2.38;;
49946;SDS011;35839;48.662;13.300;2022-08-11T21:07:31;2.33;;;1.95;;
49946;SDS011;35839;48.662;13.300;2022-08-11T21:10:17;3.75;;;2.10;;
49946;SDS011;35839;48.662;13.300;2022-08-11T21:13:03;3.97;;;2.53;;
49946;SDS011;35839;48.662;13.300;2022-08-11T21:15:48;4.07;;;2.08;;
49946;SDS011;35839;48.662;13.300;2022-08-11T21:18:35;3.50;;;2.22;;
49946;SDS011;35839;48.662;13.300;2022-08-11T21:21:23;2.83;;;2.28;;